Aérodrome :
LOGIN :

S'inscrire | Disclaimer

   EN    FR    IT 

 










Légende :    VFR   VFR Marginal   IFR   IFR Intensif   IFR Très Intensif
Visi : 
Plafond : 
>= 8 km
>= 3000ft
5 à 8 km
1000 à 3000 ft
1500m à 5 km
500 à 1000 ft
800 à 1500m
200 à 500 ft
< 800m
< 200 ft
Symboles :   Orages  Brouillard  Fortes neiges  Fortes précipitations  Vent > 20 kt
SIGMETs :   Divers  Orages  Givrage  Turbulence  Onde Orograph.  Cendres Volcan.







- Altitude de l'aérodrome : 3782 ft
- Code IATA : OZZ


GMMZ - Ouarzazate Int.

DERNIER METAR :
  • 190200Z 05002KT 9999 FEW040 13/M01 Q1009 NOSIG

METARs EXPIRÉS :
  • 190100Z 33010KT 9999 FEW040 14/M01 Q1010 NOSIG
  • 190000Z 30017KT 9999 FEW040 14/M01 Q1010 NOSIG

TAF TAF GMMZ
Valide du 19 à 00h jusqu'au 20 à 06h UTC


182300Z 1900/2006 30021KT 99999 FEW040
BECMG 1903/1905 28006KT
Pas de NOTAMs connus pour ce terrain.
1 SIGMET publié pour la FIR Casablanca (GMMM) :
 
Orages noyés dans la masse
GMMM SIGMET 08 VALID 182245/190245 GMMC
GMMM CASABLANCA FIR EMBD TS FCST N OF LINE N3500 W00407 - N3455 W005 27 - N3321 W00722 - N3151 W01004 - N3541 W00459 TOP FL300 MOV E NC=



MET'MAP, la Météo Aéronautique d'un coup d'oeil ! - Copyright ORBIFLY Décembre 2007 - Disclaimer

ORBIFLY MET'MAP TEAM :

Programmation & Développement : Alexandra Zaïnal
Conception & Développement : Baudouin d'Aumeries
Co-Programmation & Développement : Marc-Olivier Méhu
Soutien technique & logistique : Manuel Goepfert

Contact : metmap@orbifly.com




SOURCES & CREDITS :

   NOAA